sensor_id;sensor_type;location;lat;lon;timestamp;P1;durP1;ratioP1;P2;durP2;ratioP2
37535;SDS011;23379;51.554;6.736;2023-12-22T00:00:13;6.20;;;2.30;;
37535;SDS011;23379;51.554;6.736;2023-12-22T00:02:38;5.18;;;2.22;;
37535;SDS011;23379;51.554;6.736;2023-12-22T00:05:04;8.70;;;2.67;;
37535;SDS011;23379;51.554;6.736;2023-12-22T00:07:29;10.27;;;2.42;;
37535;SDS011;23379;51.554;6.736;2023-12-22T00:09:55;5.93;;;2.47;;
37535;SDS011;23379;51.554;6.736;2023-12-22T00:12:20;10.52;;;2.55;;
37535;SDS011;23379;51.554;6.736;2023-12-22T00:14:46;7.85;;;2.53;;
37535;SDS011;23379;51.554;6.736;2023-12-22T00:17:11;8.10;;;2.40;;
37535;SDS011;23379;51.554;6.736;2023-12-22T00:19:37;10.00;;;2.67;;
37535;SDS011;23379;51.554;6.736;2023-12-22T00:22:02;11.50;;;2.63;;
37535;SDS011;23379;51.554;6.736;2023-12-22T00:24:28;8.98;;;2.70;;
37535;SDS011;23379;51.554;6.736;2023-12-22T00:26:54;8.38;;;3.50;;
37535;SDS011;23379;51.554;6.736;2023-12-22T00:29:19;11.52;;;2.95;;
37535;SDS011;23379;51.554;6.736;2023-12-22T00:31:45;12.20;;;2.60;;
37535;SDS011;23379;51.554;6.736;2023-12-22T00:34:10;4.45;;;2.38;;
37535;SDS011;23379;51.554;6.736;2023-12-22T00:36:35;12.88;;;2.75;;
37535;SDS011;23379;51.554;6.736;2023-12-22T00:39:01;10.27;;;2.58;;
37535;SDS011;23379;51.554;6.736;2023-12-22T00:41:26;7.55;;;2.63;;
37535;SDS011;23379;51.554;6.736;2023-12-22T00:43:52;6.88;;;2.22;;
37535;SDS011;23379;51.554;6.736;2023-12-22T00:46:17;12.30;;;2.83;;
37535;SDS011;23379;51.554;6.736;2023-12-22T00:48:42;12.60;;;2.60;;
37535;SDS011;23379;51.554;6.736;2023-12-22T00:54:21;14.38;;;3.03;;
37535;SDS011;23379;51.554;6.736;2023-12-22T00:56:47;10.75;;;2.83;;
37535;SDS011;23379;51.554;6.736;2023-12-22T00:59:12;10.48;;;2.75;;
37535;SDS011;23379;51.554;6.736;2023-12-22T01:01:37;8.23;;;2.83;;
37535;SDS011;23379;51.554;6.736;2023-12-22T01:04:03;11.20;;;2.67;;
37535;SDS011;23379;51.554;6.736;2023-12-22T01:06:28;9.38;;;2.55;;
37535;SDS011;23379;51.554;6.736;2023-12-22T01:08:54;10.65;;;2.80;;
37535;SDS011;23379;51.554;6.736;2023-12-22T01:11:19;9.52;;;2.38;;
37535;SDS011;23379;51.554;6.736;2023-12-22T01:13:45;6.13;;;2.42;;
37535;SDS011;23379;51.554;6.736;2023-12-22T01:16:10;11.40;;;2.40;;
37535;SDS011;23379;51.554;6.736;2023-12-22T01:18:35;9.82;;;2.72;;
37535;SDS011;23379;51.554;6.736;2023-12-22T01:21:01;13.68;;;2.42;;
37535;SDS011;23379;51.554;6.736;2023-12-22T01:23:26;4.95;;;2.05;;
37535;SDS011;23379;51.554;6.736;2023-12-22T01:25:52;6.32;;;1.92;;
37535;SDS011;23379;51.554;6.736;2023-12-22T01:28:17;3.08;;;1.63;;
37535;SDS011;23379;51.554;6.736;2023-12-22T01:30:43;2.45;;;1.83;;
37535;SDS011;23379;51.554;6.736;2023-12-22T01:33:08;3.65;;;1.70;;
37535;SDS011;23379;51.554;6.736;2023-12-22T01:35:33;4.88;;;1.52;;
37535;SDS011;23379;51.554;6.736;2023-12-22T01:38:00;2.65;;;1.60;;
37535;SDS011;23379;51.554;6.736;2023-12-22T01:40:25;4.22;;;1.63;;
37535;SDS011;23379;51.554;6.736;2023-12-22T01:42:51;3.05;;;1.88;;
37535;SDS011;23379;51.554;6.736;2023-12-22T01:45:16;5.75;;;2.35;;
37535;SDS011;23379;51.554;6.736;2023-12-22T01:47:42;5.70;;;1.60;;
37535;SDS011;23379;51.554;6.736;2023-12-22T01:50:08;7.40;;;2.03;;
37535;SDS011;23379;51.554;6.736;2023-12-22T01:52:36;7.95;;;2.58;;
37535;SDS011;23379;51.554;6.736;2023-12-22T01:55:05;7.82;;;2.33;;
37535;SDS011;23379;51.554;6.736;2023-12-22T01:57:31;4.47;;;2.28;;
37535;SDS011;23379;51.554;6.736;2023-12-22T01:59:59;5.35;;;2.30;;
37535;SDS011;23379;51.554;6.736;2023-12-22T02:02:25;4.97;;;2.25;;
37535;SDS011;23379;51.554;6.736;2023-12-22T02:04:50;5.22;;;1.73;;
37535;SDS011;23379;51.554;6.736;2023-12-22T02:07:16;4.40;;;1.98;;
37535;SDS011;23379;51.554;6.736;2023-12-22T02:09:41;4.75;;;1.85;;
37535;SDS011;23379;51.554;6.736;2023-12-22T02:12:07;11.80;;;2.33;;
37535;SDS011;23379;51.554;6.736;2023-12-22T02:14:32;7.03;;;2.40;;
37535;SDS011;23379;51.554;6.736;2023-12-22T02:17:03;12.20;;;2.30;;
37535;SDS011;23379;51.554;6.736;2023-12-22T02:19:40;7.30;;;2.00;;
37535;SDS011;23379;51.554;6.736;2023-12-22T02:22:07;8.65;;;2.03;;
37535;SDS011;23379;51.554;6.736;2023-12-22T02:24:34;10.35;;;2.60;;
37535;SDS011;23379;51.554;6.736;2023-12-22T02:27:03;9.13;;;2.67;;
37535;SDS011;23379;51.554;6.736;2023-12-22T02:29:30;7.22;;;2.30;;
37535;SDS011;23379;51.554;6.736;2023-12-22T02:31:59;11.90;;;2.40;;
37535;SDS011;23379;51.554;6.736;2023-12-22T02:34:31;10.73;;;2.47;;
37535;SDS011;23379;51.554;6.736;2023-12-22T02:37:00;10.35;;;2.78;;
37535;SDS011;23379;51.554;6.736;2023-12-22T02:39:27;9.20;;;2.47;;
37535;SDS011;23379;51.554;6.736;2023-12-22T02:41:52;8.55;;;2.80;;
37535;SDS011;23379;51.554;6.736;2023-12-22T02:44:18;7.32;;;2.55;;
37535;SDS011;23379;51.554;6.736;2023-12-22T02:46:43;5.00;;;2.25;;
37535;SDS011;23379;51.554;6.736;2023-12-22T02:49:09;11.10;;;2.55;;
37535;SDS011;23379;51.554;6.736;2023-12-22T02:51:35;12.40;;;2.47;;
37535;SDS011;23379;51.554;6.736;2023-12-22T02:54:00;9.77;;;2.30;;
37535;SDS011;23379;51.554;6.736;2023-12-22T02:56:33;10.27;;;2.90;;
37535;SDS011;23379;51.554;6.736;2023-12-22T02:58:59;10.98;;;2.90;;
37535;SDS011;23379;51.554;6.736;2023-12-22T03:01:24;8.52;;;2.40;;
37535;SDS011;23379;51.554;6.736;2023-12-22T03:03:50;8.05;;;2.58;;
37535;SDS011;23379;51.554;6.736;2023-12-22T03:06:15;8.30;;;2.50;;
37535;SDS011;23379;51.554;6.736;2023-12-22T03:08:40;9.27;;;2.70;;
37535;SDS011;23379;51.554;6.736;2023-12-22T03:11:06;4.20;;;2.25;;
37535;SDS011;23379;51.554;6.736;2023-12-22T03:13:31;6.68;;;2.10;;
37535;SDS011;23379;51.554;6.736;2023-12-22T03:15:56;8.88;;;2.53;;
37535;SDS011;23379;51.554;6.736;2023-12-22T03:18:22;8.07;;;2.58;;
37535;SDS011;23379;51.554;6.736;2023-12-22T03:20:47;8.35;;;2.13;;
37535;SDS011;23379;51.554;6.736;2023-12-22T03:23:13;7.97;;;2.33;;
37535;SDS011;23379;51.554;6.736;2023-12-22T03:25:38;11.65;;;2.70;;
37535;SDS011;23379;51.554;6.736;2023-12-22T03:28:03;12.20;;;2.75;;
37535;SDS011;23379;51.554;6.736;2023-12-22T03:30:29;9.85;;;2.67;;
37535;SDS011;23379;51.554;6.736;2023-12-22T03:32:54;11.27;;;2.75;;
37535;SDS011;23379;51.554;6.736;2023-12-22T03:35:20;10.48;;;2.80;;
37535;SDS011;23379;51.554;6.736;2023-12-22T03:37:45;15.43;;;2.70;;
37535;SDS011;23379;51.554;6.736;2023-12-22T03:40:10;12.75;;;2.85;;
37535;SDS011;23379;51.554;6.736;2023-12-22T03:42:36;10.68;;;3.30;;
37535;SDS011;23379;51.554;6.736;2023-12-22T03:45:01;16.38;;;3.22;;
37535;SDS011;23379;51.554;6.736;2023-12-22T03:47:27;9.73;;;2.85;;
37535;SDS011;23379;51.554;6.736;2023-12-22T03:49:52;17.33;;;3.38;;
37535;SDS011;23379;51.554;6.736;2023-12-22T03:52:17;12.48;;;2.85;;
37535;SDS011;23379;51.554;6.736;2023-12-22T03:54:43;12.13;;;2.63;;
37535;SDS011;23379;51.554;6.736;2023-12-22T03:57:08;13.73;;;2.83;;
37535;SDS011;23379;51.554;6.736;2023-12-22T03:59:34;17.38;;;3.35;;
37535;SDS011;23379;51.554;6.736;2023-12-22T04:01:59;13.20;;;2.83;;
37535;SDS011;23379;51.554;6.736;2023-12-22T04:04:26;15.00;;;3.25;;
37535;SDS011;23379;51.554;6.736;2023-12-22T04:06:53;16.15;;;3.67;;
37535;SDS011;23379;51.554;6.736;2023-12-22T04:09:19;18.35;;;2.90;;
37535;SDS011;23379;51.554;6.736;2023-12-22T04:11:44;11.77;;;3.30;;
37535;SDS011;23379;51.554;6.736;2023-12-22T04:14:09;13.88;;;3.40;;
37535;SDS011;23379;51.554;6.736;2023-12-22T04:16:38;12.40;;;2.50;;
37535;SDS011;23379;51.554;6.736;2023-12-22T04:19:03;11.30;;;3.10;;
37535;SDS011;23379;51.554;6.736;2023-12-22T04:21:29;18.27;;;3.25;;
37535;SDS011;23379;51.554;6.736;2023-12-22T04:23:54;14.32;;;2.60;;
37535;SDS011;23379;51.554;6.736;2023-12-22T04:26:20;13.38;;;2.83;;
37535;SDS011;23379;51.554;6.736;2023-12-22T04:28:45;11.13;;;3.17;;
37535;SDS011;23379;51.554;6.736;2023-12-22T04:31:10;9.13;;;3.05;;
37535;SDS011;23379;51.554;6.736;2023-12-22T04:33:36;12.07;;;2.28;;
37535;SDS011;23379;51.554;6.736;2023-12-22T04:36:01;14.77;;;2.30;;
37535;SDS011;23379;51.554;6.736;2023-12-22T04:38:27;8.00;;;2.60;;
37535;SDS011;23379;51.554;6.736;2023-12-22T04:40:52;3.83;;;2.13;;
37535;SDS011;23379;51.554;6.736;2023-12-22T04:43:17;5.53;;;1.58;;
37535;SDS011;23379;51.554;6.736;2023-12-22T04:45:43;5.38;;;2.00;;
37535;SDS011;23379;51.554;6.736;2023-12-22T04:48:08;6.00;;;1.70;;
37535;SDS011;23379;51.554;6.736;2023-12-22T04:50:33;6.72;;;2.40;;
37535;SDS011;23379;51.554;6.736;2023-12-22T04:52:59;3.17;;;1.42;;
37535;SDS011;23379;51.554;6.736;2023-12-22T04:55:24;4.95;;;1.85;;
37535;SDS011;23379;51.554;6.736;2023-12-22T04:57:50;2.63;;;1.42;;
37535;SDS011;23379;51.554;6.736;2023-12-22T05:00:15;6.22;;;1.98;;
37535;SDS011;23379;51.554;6.736;2023-12-22T05:02:40;7.00;;;1.80;;
37535;SDS011;23379;51.554;6.736;2023-12-22T05:05:06;5.72;;;1.80;;
37535;SDS011;23379;51.554;6.736;2023-12-22T05:07:33;6.03;;;1.98;;
37535;SDS011;23379;51.554;6.736;2023-12-22T05:09:58;8.15;;;2.10;;
37535;SDS011;23379;51.554;6.736;2023-12-22T05:12:24;9.60;;;2.10;;
37535;SDS011;23379;51.554;6.736;2023-12-22T05:14:49;7.00;;;1.88;;
37535;SDS011;23379;51.554;6.736;2023-12-22T05:17:14;10.40;;;2.10;;
37535;SDS011;23379;51.554;6.736;2023-12-22T05:19:40;9.90;;;2.35;;
37535;SDS011;23379;51.554;6.736;2023-12-22T05:22:05;5.22;;;2.40;;
37535;SDS011;23379;51.554;6.736;2023-12-22T05:24:31;9.20;;;2.33;;
37535;SDS011;23379;51.554;6.736;2023-12-22T05:26:56;5.40;;;2.10;;
37535;SDS011;23379;51.554;6.736;2023-12-22T05:29:21;4.35;;;2.25;;
37535;SDS011;23379;51.554;6.736;2023-12-22T05:31:47;8.57;;;2.30;;
37535;SDS011;23379;51.554;6.736;2023-12-22T05:34:12;5.70;;;2.10;;
37535;SDS011;23379;51.554;6.736;2023-12-22T05:36:37;3.97;;;1.85;;
37535;SDS011;23379;51.554;6.736;2023-12-22T05:39:03;7.78;;;2.70;;
37535;SDS011;23379;51.554;6.736;2023-12-22T05:41:28;8.63;;;2.20;;
37535;SDS011;23379;51.554;6.736;2023-12-22T05:47:15;9.93;;;2.55;;
37535;SDS011;23379;51.554;6.736;2023-12-22T05:49:59;4.78;;;2.03;;
37535;SDS011;23379;51.554;6.736;2023-12-22T05:56:29;6.57;;;2.15;;
37535;SDS011;23379;51.554;6.736;2023-12-22T05:59:06;7.55;;;2.45;;
37535;SDS011;23379;51.554;6.736;2023-12-22T06:01:31;6.28;;;2.35;;
37535;SDS011;23379;51.554;6.736;2023-12-22T06:03:57;11.68;;;2.45;;
37535;SDS011;23379;51.554;6.736;2023-12-22T06:06:22;4.90;;;1.85;;
37535;SDS011;23379;51.554;6.736;2023-12-22T06:08:48;6.40;;;2.78;;
37535;SDS011;23379;51.554;6.736;2023-12-22T06:14:44;10.30;;;2.05;;
37535;SDS011;23379;51.554;6.736;2023-12-22T06:17:15;8.63;;;2.35;;
37535;SDS011;23379;51.554;6.736;2023-12-22T06:19:41;11.65;;;2.92;;
37535;SDS011;23379;51.554;6.736;2023-12-22T06:22:14;5.97;;;1.98;;
37535;SDS011;23379;51.554;6.736;2023-12-22T06:24:42;8.85;;;2.53;;
37535;SDS011;23379;51.554;6.736;2023-12-22T06:27:17;6.95;;;2.55;;
37535;SDS011;23379;51.554;6.736;2023-12-22T06:29:46;12.70;;;2.78;;
37535;SDS011;23379;51.554;6.736;2023-12-22T06:32:11;10.30;;;3.13;;
37535;SDS011;23379;51.554;6.736;2023-12-22T06:34:37;12.85;;;2.90;;
37535;SDS011;23379;51.554;6.736;2023-12-22T06:37:02;9.38;;;2.65;;
37535;SDS011;23379;51.554;6.736;2023-12-22T06:39:28;9.20;;;2.53;;
37535;SDS011;23379;51.554;6.736;2023-12-22T06:41:53;12.25;;;3.10;;
37535;SDS011;23379;51.554;6.736;2023-12-22T06:44:19;17.08;;;3.22;;
37535;SDS011;23379;51.554;6.736;2023-12-22T06:46:44;16.30;;;3.58;;
37535;SDS011;23379;51.554;6.736;2023-12-22T06:49:10;11.82;;;3.50;;
37535;SDS011;23379;51.554;6.736;2023-12-22T06:51:35;14.40;;;4.03;;
37535;SDS011;23379;51.554;6.736;2023-12-22T06:54:01;18.33;;;4.38;;
37535;SDS011;23379;51.554;6.736;2023-12-22T06:56:27;11.18;;;3.25;;
37535;SDS011;23379;51.554;6.736;2023-12-22T06:58:56;18.92;;;3.80;;
37535;SDS011;23379;51.554;6.736;2023-12-22T07:01:23;15.20;;;3.60;;
37535;SDS011;23379;51.554;6.736;2023-12-22T07:03:50;15.18;;;3.05;;
37535;SDS011;23379;51.554;6.736;2023-12-22T07:06:16;13.25;;;3.17;;
37535;SDS011;23379;51.554;6.736;2023-12-22T07:08:43;13.13;;;2.70;;
37535;SDS011;23379;51.554;6.736;2023-12-22T07:11:09;19.60;;;3.00;;
37535;SDS011;23379;51.554;6.736;2023-12-22T07:13:35;14.00;;;3.08;;
37535;SDS011;23379;51.554;6.736;2023-12-22T07:16:02;14.65;;;3.13;;
37535;SDS011;23379;51.554;6.736;2023-12-22T07:18:27;12.23;;;2.88;;
37535;SDS011;23379;51.554;6.736;2023-12-22T07:20:56;18.20;;;2.92;;
37535;SDS011;23379;51.554;6.736;2023-12-22T07:23:22;11.95;;;2.70;;
37535;SDS011;23379;51.554;6.736;2023-12-22T07:25:48;11.70;;;3.00;;
37535;SDS011;23379;51.554;6.736;2023-12-22T07:28:19;10.93;;;2.30;;
37535;SDS011;23379;51.554;6.736;2023-12-22T07:30:44;9.50;;;2.95;;
37535;SDS011;23379;51.554;6.736;2023-12-22T07:33:10;11.95;;;2.80;;
37535;SDS011;23379;51.554;6.736;2023-12-22T07:35:35;10.90;;;2.90;;
37535;SDS011;23379;51.554;6.736;2023-12-22T07:38:00;9.82;;;2.53;;
37535;SDS011;23379;51.554;6.736;2023-12-22T07:40:28;13.27;;;3.20;;
37535;SDS011;23379;51.554;6.736;2023-12-22T07:42:55;12.65;;;3.30;;
37535;SDS011;23379;51.554;6.736;2023-12-22T07:45:21;15.88;;;2.63;;
37535;SDS011;23379;51.554;6.736;2023-12-22T07:47:46;13.88;;;3.42;;
37535;SDS011;23379;51.554;6.736;2023-12-22T07:50:11;18.65;;;3.55;;
37535;SDS011;23379;51.554;6.736;2023-12-22T07:52:37;12.77;;;3.20;;
37535;SDS011;23379;51.554;6.736;2023-12-22T07:55:12;16.55;;;3.45;;
37535;SDS011;23379;51.554;6.736;2023-12-22T07:57:38;11.70;;;3.13;;
37535;SDS011;23379;51.554;6.736;2023-12-22T08:00:07;17.90;;;4.22;;
37535;SDS011;23379;51.554;6.736;2023-12-22T08:02:34;10.60;;;3.03;;
37535;SDS011;23379;51.554;6.736;2023-12-22T08:04:59;13.77;;;3.30;;
37535;SDS011;23379;51.554;6.736;2023-12-22T08:07:25;21.35;;;4.22;;
37535;SDS011;23379;51.554;6.736;2023-12-22T08:09:53;18.75;;;4.38;;
37535;SDS011;23379;51.554;6.736;2023-12-22T08:12:19;16.27;;;3.60;;
37535;SDS011;23379;51.554;6.736;2023-12-22T08:14:44;25.08;;;5.18;;
37535;SDS011;23379;51.554;6.736;2023-12-22T08:17:10;27.45;;;4.93;;
37535;SDS011;23379;51.554;6.736;2023-12-22T08:19:38;30.13;;;4.63;;
37535;SDS011;23379;51.554;6.736;2023-12-22T08:22:07;24.25;;;4.72;;
37535;SDS011;23379;51.554;6.736;2023-12-22T08:24:33;18.90;;;4.53;;
37535;SDS011;23379;51.554;6.736;2023-12-22T08:26:59;23.92;;;4.82;;
37535;SDS011;23379;51.554;6.736;2023-12-22T08:29:24;25.52;;;4.55;;
37535;SDS011;23379;51.554;6.736;2023-12-22T08:31:49;19.13;;;3.97;;
37535;SDS011;23379;51.554;6.736;2023-12-22T08:34:15;22.42;;;4.50;;
37535;SDS011;23379;51.554;6.736;2023-12-22T08:36:40;28.48;;;5.65;;
37535;SDS011;23379;51.554;6.736;2023-12-22T08:39:05;25.50;;;5.15;;
37535;SDS011;23379;51.554;6.736;2023-12-22T08:41:31;33.22;;;6.57;;
37535;SDS011;23379;51.554;6.736;2023-12-22T08:44:02;21.40;;;4.63;;
37535;SDS011;23379;51.554;6.736;2023-12-22T08:46:29;32.97;;;5.55;;
37535;SDS011;23379;51.554;6.736;2023-12-22T08:48:55;26.50;;;5.15;;
37535;SDS011;23379;51.554;6.736;2023-12-22T08:51:21;30.45;;;6.15;;
37535;SDS011;23379;51.554;6.736;2023-12-22T08:53:46;26.83;;;5.07;;
37535;SDS011;23379;51.554;6.736;2023-12-22T08:56:11;27.30;;;4.97;;
37535;SDS011;23379;51.554;6.736;2023-12-22T08:58:37;7.15;;;2.72;;
37535;SDS011;23379;51.554;6.736;2023-12-22T09:01:02;7.35;;;2.40;;
37535;SDS011;23379;51.554;6.736;2023-12-22T09:03:28;12.00;;;3.03;;
37535;SDS011;23379;51.554;6.736;2023-12-22T09:05:55;8.13;;;2.72;;
37535;SDS011;23379;51.554;6.736;2023-12-22T09:08:20;9.65;;;2.63;;
37535;SDS011;23379;51.554;6.736;2023-12-22T09:10:46;10.90;;;2.90;;
37535;SDS011;23379;51.554;6.736;2023-12-22T09:13:11;13.10;;;2.83;;
37535;SDS011;23379;51.554;6.736;2023-12-22T09:15:36;8.52;;;2.28;;
37535;SDS011;23379;51.554;6.736;2023-12-22T09:18:02;6.70;;;2.70;;
37535;SDS011;23379;51.554;6.736;2023-12-22T09:20:28;4.53;;;2.35;;
37535;SDS011;23379;51.554;6.736;2023-12-22T09:22:55;6.20;;;2.60;;
37535;SDS011;23379;51.554;6.736;2023-12-22T09:25:20;7.90;;;2.95;;
37535;SDS011;23379;51.554;6.736;2023-12-22T09:27:47;15.05;;;2.97;;
37535;SDS011;23379;51.554;6.736;2023-12-22T09:30:12;11.88;;;3.50;;
37535;SDS011;23379;51.554;6.736;2023-12-22T09:35:30;17.25;;;3.75;;
37535;SDS011;23379;51.554;6.736;2023-12-22T09:37:55;13.57;;;3.88;;
37535;SDS011;23379;51.554;6.736;2023-12-22T09:40:21;20.95;;;4.65;;
37535;SDS011;23379;51.554;6.736;2023-12-22T09:42:47;23.83;;;5.22;;
37535;SDS011;23379;51.554;6.736;2023-12-22T09:45:13;18.40;;;3.92;;
37535;SDS011;23379;51.554;6.736;2023-12-22T09:47:43;24.60;;;4.70;;
37535;SDS011;23379;51.554;6.736;2023-12-22T09:50:10;21.55;;;4.57;;
37535;SDS011;23379;51.554;6.736;2023-12-22T09:52:36;18.35;;;4.38;;
37535;SDS011;23379;51.554;6.736;2023-12-22T09:55:22;15.27;;;4.20;;
37535;SDS011;23379;51.554;6.736;2023-12-22T09:57:49;20.88;;;4.53;;
37535;SDS011;23379;51.554;6.736;2023-12-22T10:00:15;17.73;;;4.03;;
37535;SDS011;23379;51.554;6.736;2023-12-22T10:02:41;23.02;;;4.07;;
37535;SDS011;23379;51.554;6.736;2023-12-22T10:05:08;12.10;;;3.35;;
37535;SDS011;23379;51.554;6.736;2023-12-22T10:07:35;21.55;;;4.05;;
37535;SDS011;23379;51.554;6.736;2023-12-22T10:10:00;13.32;;;2.95;;
37535;SDS011;23379;51.554;6.736;2023-12-22T10:12:29;11.90;;;3.30;;
37535;SDS011;23379;51.554;6.736;2023-12-22T10:14:56;13.25;;;3.58;;
37535;SDS011;23379;51.554;6.736;2023-12-22T10:17:21;15.15;;;3.42;;
37535;SDS011;23379;51.554;6.736;2023-12-22T10:19:48;12.30;;;3.67;;
37535;SDS011;23379;51.554;6.736;2023-12-22T10:22:13;12.60;;;3.42;;
37535;SDS011;23379;51.554;6.736;2023-12-22T10:24:42;10.95;;;3.45;;
37535;SDS011;23379;51.554;6.736;2023-12-22T10:27:15;19.75;;;3.92;;
37535;SDS011;23379;51.554;6.736;2023-12-22T10:29:47;14.20;;;3.50;;
37535;SDS011;23379;51.554;6.736;2023-12-22T10:32:16;15.75;;;3.17;;
37535;SDS011;23379;51.554;6.736;2023-12-22T10:34:42;12.43;;;3.47;;
37535;SDS011;23379;51.554;6.736;2023-12-22T10:37:08;8.15;;;2.30;;
37535;SDS011;23379;51.554;6.736;2023-12-22T10:39:35;6.93;;;2.90;;
37535;SDS011;23379;51.554;6.736;2023-12-22T10:42:01;7.10;;;1.92;;
37535;SDS011;23379;51.554;6.736;2023-12-22T10:44:27;4.95;;;1.98;;
37535;SDS011;23379;51.554;6.736;2023-12-22T10:46:54;3.60;;;1.50;;
37535;SDS011;23379;51.554;6.736;2023-12-22T10:49:20;1.90;;;1.75;;
37535;SDS011;23379;51.554;6.736;2023-12-22T10:51:46;2.10;;;1.90;;
37535;SDS011;23379;51.554;6.736;2023-12-22T10:54:11;4.32;;;1.70;;
37535;SDS011;23379;51.554;6.736;2023-12-22T10:56:37;4.03;;;1.40;;
37535;SDS011;23379;51.554;6.736;2023-12-22T10:59:04;2.50;;;1.45;;
37535;SDS011;23379;51.554;6.736;2023-12-22T11:01:31;3.00;;;1.48;;
37535;SDS011;23379;51.554;6.736;2023-12-22T11:04:03;2.75;;;1.52;;
37535;SDS011;23379;51.554;6.736;2023-12-22T11:06:34;2.28;;;1.33;;
37535;SDS011;23379;51.554;6.736;2023-12-22T11:09:01;1.83;;;1.70;;
37535;SDS011;23379;51.554;6.736;2023-12-22T11:11:34;2.40;;;1.40;;
37535;SDS011;23379;51.554;6.736;2023-12-22T11:14:01;2.25;;;1.90;;
37535;SDS011;23379;51.554;6.736;2023-12-22T11:16:30;2.88;;;1.90;;
37535;SDS011;23379;51.554;6.736;2023-12-22T11:18:56;7.20;;;2.00;;
37535;SDS011;23379;51.554;6.736;2023-12-22T11:21:23;7.22;;;2.08;;
37535;SDS011;23379;51.554;6.736;2023-12-22T11:23:49;2.65;;;1.90;;
37535;SDS011;23379;51.554;6.736;2023-12-22T11:26:16;2.58;;;1.92;;
37535;SDS011;23379;51.554;6.736;2023-12-22T11:28:43;5.68;;;2.35;;
37535;SDS011;23379;51.554;6.736;2023-12-22T11:31:10;8.27;;;1.90;;
37535;SDS011;23379;51.554;6.736;2023-12-22T11:33:37;4.63;;;2.10;;
37535;SDS011;23379;51.554;6.736;2023-12-22T11:36:07;6.90;;;2.47;;
37535;SDS011;23379;51.554;6.736;2023-12-22T11:38:33;5.38;;;2.15;;
37535;SDS011;23379;51.554;6.736;2023-12-22T11:40:59;4.57;;;2.35;;
37535;SDS011;23379;51.554;6.736;2023-12-22T11:43:25;4.65;;;2.15;;
37535;SDS011;23379;51.554;6.736;2023-12-22T11:45:52;5.10;;;1.80;;
37535;SDS011;23379;51.554;6.736;2023-12-22T11:48:17;6.53;;;2.70;;
37535;SDS011;23379;51.554;6.736;2023-12-22T11:50:43;4.10;;;2.35;;
37535;SDS011;23379;51.554;6.736;2023-12-22T11:56:04;8.32;;;1.95;;
37535;SDS011;23379;51.554;6.736;2023-12-22T11:58:36;4.32;;;1.88;;
37535;SDS011;23379;51.554;6.736;2023-12-22T12:01:07;7.57;;;2.03;;
37535;SDS011;23379;51.554;6.736;2023-12-22T12:03:59;6.32;;;2.25;;
37535;SDS011;23379;51.554;6.736;2023-12-22T12:09:04;6.78;;;1.95;;
37535;SDS011;23379;51.554;6.736;2023-12-22T12:14:22;6.15;;;2.53;;
37535;SDS011;23379;51.554;6.736;2023-12-22T12:16:55;5.43;;;2.17;;
37535;SDS011;23379;51.554;6.736;2023-12-22T12:19:25;6.10;;;1.83;;
37535;SDS011;23379;51.554;6.736;2023-12-22T12:21:50;4.55;;;2.28;;
37535;SDS011;23379;51.554;6.736;2023-12-22T12:24:16;3.05;;;2.10;;
37535;SDS011;23379;51.554;6.736;2023-12-22T12:26:42;6.97;;;1.80;;
37535;SDS011;23379;51.554;6.736;2023-12-22T12:29:08;3.97;;;1.98;;
37535;SDS011;23379;51.554;6.736;2023-12-22T12:31:37;4.57;;;1.70;;
37535;SDS011;23379;51.554;6.736;2023-12-22T12:34:04;2.05;;;1.27;;
37535;SDS011;23379;51.554;6.736;2023-12-22T12:36:29;2.55;;;1.70;;
37535;SDS011;23379;51.554;6.736;2023-12-22T12:38:56;5.63;;;1.63;;
37535;SDS011;23379;51.554;6.736;2023-12-22T12:41:30;5.78;;;1.50;;
37535;SDS011;23379;51.554;6.736;2023-12-22T12:43:59;2.92;;;1.70;;
37535;SDS011;23379;51.554;6.736;2023-12-22T12:46:32;3.53;;;1.67;;
37535;SDS011;23379;51.554;6.736;2023-12-22T12:49:05;3.83;;;1.77;;
37535;SDS011;23379;51.554;6.736;2023-12-22T12:51:39;4.57;;;1.85;;
37535;SDS011;23379;51.554;6.736;2023-12-22T12:54:08;2.70;;;1.60;;
37535;SDS011;23379;51.554;6.736;2023-12-22T12:56:39;3.47;;;2.13;;
37535;SDS011;23379;51.554;6.736;2023-12-22T12:59:14;1.60;;;1.50;;
37535;SDS011;23379;51.554;6.736;2023-12-22T13:01:42;3.15;;;1.80;;
37535;SDS011;23379;51.554;6.736;2023-12-22T13:04:08;7.82;;;1.88;;
37535;SDS011;23379;51.554;6.736;2023-12-22T13:06:34;2.55;;;1.60;;
37535;SDS011;23379;51.554;6.736;2023-12-22T13:09:00;6.03;;;1.60;;
37535;SDS011;23379;51.554;6.736;2023-12-22T13:11:26;2.88;;;1.58;;
37535;SDS011;23379;51.554;6.736;2023-12-22T13:13:53;1.42;;;1.30;;
37535;SDS011;23379;51.554;6.736;2023-12-22T13:16:19;4.60;;;1.50;;
37535;SDS011;23379;51.554;6.736;2023-12-22T13:18:46;9.27;;;1.90;;
37535;SDS011;23379;51.554;6.736;2023-12-22T13:21:12;5.10;;;1.45;;
37535;SDS011;23379;51.554;6.736;2023-12-22T13:23:38;4.80;;;1.70;;
37535;SDS011;23379;51.554;6.736;2023-12-22T13:26:04;4.50;;;1.67;;
37535;SDS011;23379;51.554;6.736;2023-12-22T13:28:29;2.80;;;1.42;;
37535;SDS011;23379;51.554;6.736;2023-12-22T13:30:55;5.00;;;1.80;;
37535;SDS011;23379;51.554;6.736;2023-12-22T13:33:20;4.07;;;1.98;;
37535;SDS011;23379;51.554;6.736;2023-12-22T13:35:46;7.25;;;2.28;;
37535;SDS011;23379;51.554;6.736;2023-12-22T13:38:13;5.10;;;1.90;;
37535;SDS011;23379;51.554;6.736;2023-12-22T13:40:39;6.45;;;2.10;;
37535;SDS011;23379;51.554;6.736;2023-12-22T13:43:10;3.92;;;1.90;;
37535;SDS011;23379;51.554;6.736;2023-12-22T13:45:36;4.80;;;2.03;;
37535;SDS011;23379;51.554;6.736;2023-12-22T13:48:01;3.20;;;1.88;;
37535;SDS011;23379;51.554;6.736;2023-12-22T13:50:27;6.47;;;1.60;;
37535;SDS011;23379;51.554;6.736;2023-12-22T13:52:52;9.48;;;2.38;;
37535;SDS011;23379;51.554;6.736;2023-12-22T13:55:18;7.80;;;2.15;;
37535;SDS011;23379;51.554;6.736;2023-12-22T13:57:45;6.80;;;2.03;;
37535;SDS011;23379;51.554;6.736;2023-12-22T14:02:45;6.50;;;2.08;;
37535;SDS011;23379;51.554;6.736;2023-12-22T14:05:11;8.30;;;1.73;;
37535;SDS011;23379;51.554;6.736;2023-12-22T14:07:37;3.63;;;1.60;;
37535;SDS011;23379;51.554;6.736;2023-12-22T14:10:09;8.30;;;2.03;;
37535;SDS011;23379;51.554;6.736;2023-12-22T14:12:35;5.38;;;2.00;;
37535;SDS011;23379;51.554;6.736;2023-12-22T14:15:02;6.57;;;1.85;;
37535;SDS011;23379;51.554;6.736;2023-12-22T14:17:32;6.93;;;2.28;;
37535;SDS011;23379;51.554;6.736;2023-12-22T14:19:57;4.70;;;1.95;;
37535;SDS011;23379;51.554;6.736;2023-12-22T14:22:23;8.10;;;1.75;;
37535;SDS011;23379;51.554;6.736;2023-12-22T14:24:48;6.70;;;1.92;;
37535;SDS011;23379;51.554;6.736;2023-12-22T14:27:13;5.00;;;1.92;;
37535;SDS011;23379;51.554;6.736;2023-12-22T14:29:39;6.57;;;2.30;;
37535;SDS011;23379;51.554;6.736;2023-12-22T14:32:06;6.00;;;2.22;;
37535;SDS011;23379;51.554;6.736;2023-12-22T14:34:33;6.45;;;2.22;;
37535;SDS011;23379;51.554;6.736;2023-12-22T14:36:59;6.53;;;1.90;;
37535;SDS011;23379;51.554;6.736;2023-12-22T14:39:25;4.40;;;1.65;;
37535;SDS011;23379;51.554;6.736;2023-12-22T14:41:51;8.10;;;1.95;;
37535;SDS011;23379;51.554;6.736;2023-12-22T14:44:17;3.22;;;1.73;;
37535;SDS011;23379;51.554;6.736;2023-12-22T14:46:42;9.20;;;1.80;;
37535;SDS011;23379;51.554;6.736;2023-12-22T14:49:08;5.93;;;1.75;;
37535;SDS011;23379;51.554;6.736;2023-12-22T14:51:39;7.53;;;2.03;;
37535;SDS011;23379;51.554;6.736;2023-12-22T14:54:05;9.00;;;2.35;;
37535;SDS011;23379;51.554;6.736;2023-12-22T14:56:32;3.90;;;1.75;;
37535;SDS011;23379;51.554;6.736;2023-12-22T14:58:57;6.45;;;1.80;;
37535;SDS011;23379;51.554;6.736;2023-12-22T15:01:24;5.00;;;1.80;;
37535;SDS011;23379;51.554;6.736;2023-12-22T15:03:49;8.02;;;2.22;;
37535;SDS011;23379;51.554;6.736;2023-12-22T15:06:15;6.47;;;2.00;;